sensor_id;sensor_type;location;lat;lon;timestamp;P1;durP1;ratioP1;P2;durP2;ratioP2
11533;SDS011;5823;50.588;8.462;2023-04-03T00:00:11;0.00;;;0.00;;
11533;SDS011;5823;50.588;8.462;2023-04-03T00:02:37;0.15;;;0.15;;
11533;SDS011;5823;50.588;8.462;2023-04-03T00:05:05;0.10;;;0.10;;
11533;SDS011;5823;50.588;8.462;2023-04-03T00:07:32;0.15;;;0.05;;
11533;SDS011;5823;50.588;8.462;2023-04-03T00:09:58;0.15;;;0.10;;
11533;SDS011;5823;50.588;8.462;2023-04-03T00:12:24;0.10;;;0.10;;
11533;SDS011;5823;50.588;8.462;2023-04-03T00:14:52;0.17;;;0.10;;
11533;SDS011;5823;50.588;8.462;2023-04-03T00:17:18;0.20;;;0.20;;
11533;SDS011;5823;50.588;8.462;2023-04-03T00:19:44;0.08;;;0.00;;
11533;SDS011;5823;50.588;8.462;2023-04-03T00:22:11;0.00;;;0.00;;
11533;SDS011;5823;50.588;8.462;2023-04-03T00:24:37;0.00;;;0.00;;
11533;SDS011;5823;50.588;8.462;2023-04-03T00:27:03;0.00;;;0.00;;
11533;SDS011;5823;50.588;8.462;2023-04-03T00:29:29;0.10;;;0.10;;
11533;SDS011;5823;50.588;8.462;2023-04-03T00:31:57;0.03;;;0.03;;
11533;SDS011;5823;50.588;8.462;2023-04-03T00:34:24;0.00;;;0.00;;
11533;SDS011;5823;50.588;8.462;2023-04-03T00:36:51;0.20;;;0.10;;
11533;SDS011;5823;50.588;8.462;2023-04-03T00:39:17;0.00;;;0.00;;
11533;SDS011;5823;50.588;8.462;2023-04-03T00:41:43;0.00;;;0.00;;
11533;SDS011;5823;50.588;8.462;2023-04-03T00:44:22;0.10;;;0.10;;
11533;SDS011;5823;50.588;8.462;2023-04-03T00:46:48;0.00;;;0.00;;
11533;SDS011;5823;50.588;8.462;2023-04-03T00:49:16;0.05;;;0.05;;
11533;SDS011;5823;50.588;8.462;2023-04-03T00:51:42;0.00;;;0.00;;
11533;SDS011;5823;50.588;8.462;2023-04-03T00:54:08;0.03;;;0.03;;
11533;SDS011;5823;50.588;8.462;2023-04-03T00:56:35;0.10;;;0.10;;
11533;SDS011;5823;50.588;8.462;2023-04-03T00:59:03;0.10;;;0.10;;
11533;SDS011;5823;50.588;8.462;2023-04-03T01:01:31;0.10;;;0.10;;
11533;SDS011;5823;50.588;8.462;2023-04-03T01:03:58;0.00;;;0.00;;
11533;SDS011;5823;50.588;8.462;2023-04-03T01:06:28;0.10;;;0.10;;
11533;SDS011;5823;50.588;8.462;2023-04-03T01:08:55;0.00;;;0.00;;
11533;SDS011;5823;50.588;8.462;2023-04-03T01:11:22;0.47;;;0.25;;
11533;SDS011;5823;50.588;8.462;2023-04-03T01:13:48;0.30;;;0.00;;
11533;SDS011;5823;50.588;8.462;2023-04-03T01:16:15;0.38;;;0.10;;
11533;SDS011;5823;50.588;8.462;2023-04-03T01:18:41;0.10;;;0.10;;
11533;SDS011;5823;50.588;8.462;2023-04-03T01:21:11;0.10;;;0.10;;
11533;SDS011;5823;50.588;8.462;2023-04-03T01:23:50;0.20;;;0.20;;
11533;SDS011;5823;50.588;8.462;2023-04-03T01:26:18;0.00;;;0.00;;
11533;SDS011;5823;50.588;8.462;2023-04-03T01:28:45;0.10;;;0.10;;
11533;SDS011;5823;50.588;8.462;2023-04-03T01:31:13;0.08;;;0.08;;
11533;SDS011;5823;50.588;8.462;2023-04-03T01:33:42;0.20;;;0.20;;
11533;SDS011;5823;50.588;8.462;2023-04-03T01:36:09;0.00;;;0.00;;
11533;SDS011;5823;50.588;8.462;2023-04-03T01:38:35;0.10;;;0.10;;
11533;SDS011;5823;50.588;8.462;2023-04-03T01:41:02;0.00;;;0.00;;
11533;SDS011;5823;50.588;8.462;2023-04-03T01:43:28;0.00;;;0.00;;
11533;SDS011;5823;50.588;8.462;2023-04-03T01:45:54;0.03;;;0.03;;
11533;SDS011;5823;50.588;8.462;2023-04-03T01:48:21;0.00;;;0.00;;
11533;SDS011;5823;50.588;8.462;2023-04-03T01:50:51;0.17;;;0.17;;
11533;SDS011;5823;50.588;8.462;2023-04-03T01:53:17;0.10;;;0.10;;
11533;SDS011;5823;50.588;8.462;2023-04-03T01:55:44;0.00;;;0.00;;
11533;SDS011;5823;50.588;8.462;2023-04-03T01:58:10;0.15;;;0.10;;
11533;SDS011;5823;50.588;8.462;2023-04-03T02:00:36;0.13;;;0.13;;
11533;SDS011;5823;50.588;8.462;2023-04-03T02:03:03;0.10;;;0.10;;
11533;SDS011;5823;50.588;8.462;2023-04-03T02:05:29;0.10;;;0.10;;
11533;SDS011;5823;50.588;8.462;2023-04-03T02:07:57;0.00;;;0.00;;
11533;SDS011;5823;50.588;8.462;2023-04-03T02:10:23;0.28;;;0.10;;
11533;SDS011;5823;50.588;8.462;2023-04-03T02:12:49;0.00;;;0.00;;
11533;SDS011;5823;50.588;8.462;2023-04-03T02:15:16;0.17;;;0.10;;
11533;SDS011;5823;50.588;8.462;2023-04-03T02:17:42;0.25;;;0.20;;
11533;SDS011;5823;50.588;8.462;2023-04-03T02:20:08;0.00;;;0.00;;
11533;SDS011;5823;50.588;8.462;2023-04-03T02:22:34;0.20;;;0.20;;
11533;SDS011;5823;50.588;8.462;2023-04-03T02:25:02;0.03;;;0.03;;
11533;SDS011;5823;50.588;8.462;2023-04-03T02:27:29;0.03;;;0.03;;
11533;SDS011;5823;50.588;8.462;2023-04-03T02:29:56;0.20;;;0.13;;
11533;SDS011;5823;50.588;8.462;2023-04-03T02:32:23;0.05;;;0.05;;
11533;SDS011;5823;50.588;8.462;2023-04-03T02:34:49;0.10;;;0.03;;
11533;SDS011;5823;50.588;8.462;2023-04-03T02:37:15;0.10;;;0.10;;
11533;SDS011;5823;50.588;8.462;2023-04-03T02:39:42;0.30;;;0.30;;
11533;SDS011;5823;50.588;8.462;2023-04-03T02:42:09;0.57;;;0.20;;
11533;SDS011;5823;50.588;8.462;2023-04-03T02:44:35;0.08;;;0.08;;
11533;SDS011;5823;50.588;8.462;2023-04-03T02:47:01;0.13;;;0.08;;
11533;SDS011;5823;50.588;8.462;2023-04-03T02:49:28;0.40;;;0.25;;
11533;SDS011;5823;50.588;8.462;2023-04-03T02:51:54;0.10;;;0.10;;
11533;SDS011;5823;50.588;8.462;2023-04-03T02:54:20;0.10;;;0.10;;
11533;SDS011;5823;50.588;8.462;2023-04-03T02:56:48;0.30;;;0.10;;
11533;SDS011;5823;50.588;8.462;2023-04-03T02:59:16;0.32;;;0.10;;
11533;SDS011;5823;50.588;8.462;2023-04-03T03:01:42;0.25;;;0.15;;
11533;SDS011;5823;50.588;8.462;2023-04-03T03:04:08;0.55;;;0.20;;
11533;SDS011;5823;50.588;8.462;2023-04-03T03:06:34;0.10;;;0.10;;
11533;SDS011;5823;50.588;8.462;2023-04-03T03:09:01;0.05;;;0.05;;
11533;SDS011;5823;50.588;8.462;2023-04-03T03:11:28;0.55;;;0.20;;
11533;SDS011;5823;50.588;8.462;2023-04-03T03:13:55;0.10;;;0.10;;
11533;SDS011;5823;50.588;8.462;2023-04-03T03:16:23;0.30;;;0.20;;
11533;SDS011;5823;50.588;8.462;2023-04-03T03:18:49;0.30;;;0.05;;
11533;SDS011;5823;50.588;8.462;2023-04-03T03:21:15;0.20;;;0.10;;
11533;SDS011;5823;50.588;8.462;2023-04-03T03:23:41;0.08;;;0.08;;
11533;SDS011;5823;50.588;8.462;2023-04-03T03:26:08;0.10;;;0.10;;
11533;SDS011;5823;50.588;8.462;2023-04-03T03:28:35;0.13;;;0.10;;
11533;SDS011;5823;50.588;8.462;2023-04-03T03:31:02;0.17;;;0.17;;
11533;SDS011;5823;50.588;8.462;2023-04-03T03:33:29;0.10;;;0.00;;
11533;SDS011;5823;50.588;8.462;2023-04-03T03:35:56;0.57;;;0.38;;
11533;SDS011;5823;50.588;8.462;2023-04-03T03:38:22;0.20;;;0.17;;
11533;SDS011;5823;50.588;8.462;2023-04-03T03:40:49;0.10;;;0.10;;
11533;SDS011;5823;50.588;8.462;2023-04-03T03:43:16;0.00;;;0.00;;
11533;SDS011;5823;50.588;8.462;2023-04-03T03:45:42;0.30;;;0.17;;
11533;SDS011;5823;50.588;8.462;2023-04-03T03:48:08;0.00;;;0.00;;
11533;SDS011;5823;50.588;8.462;2023-04-03T03:50:36;0.15;;;0.15;;
11533;SDS011;5823;50.588;8.462;2023-04-03T03:53:02;0.30;;;0.20;;
11533;SDS011;5823;50.588;8.462;2023-04-03T03:55:28;0.20;;;0.20;;
11533;SDS011;5823;50.588;8.462;2023-04-03T03:57:55;0.20;;;0.20;;
11533;SDS011;5823;50.588;8.462;2023-04-03T04:00:21;0.03;;;0.03;;
11533;SDS011;5823;50.588;8.462;2023-04-03T04:02:47;0.30;;;0.10;;
11533;SDS011;5823;50.588;8.462;2023-04-03T04:05:14;0.10;;;0.00;;
11533;SDS011;5823;50.588;8.462;2023-04-03T04:07:41;0.05;;;0.05;;
11533;SDS011;5823;50.588;8.462;2023-04-03T04:10:08;0.40;;;0.30;;
11533;SDS011;5823;50.588;8.462;2023-04-03T04:12:34;0.10;;;0.10;;
11533;SDS011;5823;50.588;8.462;2023-04-03T04:15:01;0.10;;;0.10;;
11533;SDS011;5823;50.588;8.462;2023-04-03T04:17:27;0.00;;;0.00;;
11533;SDS011;5823;50.588;8.462;2023-04-03T04:19:53;0.00;;;0.00;;
11533;SDS011;5823;50.588;8.462;2023-04-03T04:22:20;0.50;;;0.50;;
11533;SDS011;5823;50.588;8.462;2023-04-03T04:24:47;0.00;;;0.00;;
11533;SDS011;5823;50.588;8.462;2023-04-03T04:27:13;0.10;;;0.05;;
11533;SDS011;5823;50.588;8.462;2023-04-03T04:29:40;0.10;;;0.10;;
11533;SDS011;5823;50.588;8.462;2023-04-03T04:32:06;0.00;;;0.00;;
11533;SDS011;5823;50.588;8.462;2023-04-03T04:34:33;0.10;;;0.10;;
11533;SDS011;5823;50.588;8.462;2023-04-03T04:37:00;0.03;;;0.00;;
11533;SDS011;5823;50.588;8.462;2023-04-03T04:39:26;0.10;;;0.10;;
11533;SDS011;5823;50.588;8.462;2023-04-03T04:41:53;0.00;;;0.00;;
11533;SDS011;5823;50.588;8.462;2023-04-03T04:44:21;0.00;;;0.00;;
11533;SDS011;5823;50.588;8.462;2023-04-03T04:46:47;0.10;;;0.10;;
11533;SDS011;5823;50.588;8.462;2023-04-03T04:49:13;0.10;;;0.10;;
11533;SDS011;5823;50.588;8.462;2023-04-03T04:51:39;0.10;;;0.10;;
11533;SDS011;5823;50.588;8.462;2023-04-03T04:54:06;0.05;;;0.03;;
11533;SDS011;5823;50.588;8.462;2023-04-03T04:56:32;0.10;;;0.10;;
11533;SDS011;5823;50.588;8.462;2023-04-03T04:59:00;0.10;;;0.10;;
11533;SDS011;5823;50.588;8.462;2023-04-03T05:01:26;0.00;;;0.00;;
11533;SDS011;5823;50.588;8.462;2023-04-03T05:03:53;0.20;;;0.20;;
11533;SDS011;5823;50.588;8.462;2023-04-03T05:06:20;0.28;;;0.13;;
11533;SDS011;5823;50.588;8.462;2023-04-03T05:08:46;0.00;;;0.00;;
11533;SDS011;5823;50.588;8.462;2023-04-03T05:11:12;0.47;;;0.20;;
11533;SDS011;5823;50.588;8.462;2023-04-03T05:13:38;0.00;;;0.00;;
11533;SDS011;5823;50.588;8.462;2023-04-03T05:16:06;0.00;;;0.00;;
11533;SDS011;5823;50.588;8.462;2023-04-03T05:18:32;0.00;;;0.00;;
11533;SDS011;5823;50.588;8.462;2023-04-03T05:20:58;0.32;;;0.20;;
11533;SDS011;5823;50.588;8.462;2023-04-03T05:23:25;0.10;;;0.10;;
11533;SDS011;5823;50.588;8.462;2023-04-03T05:25:51;0.20;;;0.20;;
11533;SDS011;5823;50.588;8.462;2023-04-03T05:28:17;0.17;;;0.17;;
11533;SDS011;5823;50.588;8.462;2023-04-03T05:30:43;0.28;;;0.17;;
11533;SDS011;5823;50.588;8.462;2023-04-03T05:33:11;0.00;;;0.00;;
11533;SDS011;5823;50.588;8.462;2023-04-03T05:35:39;0.10;;;0.10;;
11533;SDS011;5823;50.588;8.462;2023-04-03T05:38:06;0.00;;;0.00;;
11533;SDS011;5823;50.588;8.462;2023-04-03T05:40:32;0.10;;;0.10;;
11533;SDS011;5823;50.588;8.462;2023-04-03T05:42:58;0.10;;;0.10;;
11533;SDS011;5823;50.588;8.462;2023-04-03T05:45:25;0.20;;;0.20;;
11533;SDS011;5823;50.588;8.462;2023-04-03T05:47:51;0.65;;;0.38;;
11533;SDS011;5823;50.588;8.462;2023-04-03T05:50:18;0.70;;;0.60;;
11533;SDS011;5823;50.588;8.462;2023-04-03T05:52:45;0.20;;;0.20;;
11533;SDS011;5823;50.588;8.462;2023-04-03T05:55:12;0.40;;;0.20;;
11533;SDS011;5823;50.588;8.462;2023-04-03T05:57:39;0.52;;;0.45;;
11533;SDS011;5823;50.588;8.462;2023-04-03T06:00:05;0.90;;;0.35;;
11533;SDS011;5823;50.588;8.462;2023-04-03T06:02:32;1.02;;;0.50;;
11533;SDS011;5823;50.588;8.462;2023-04-03T06:04:58;0.70;;;0.70;;
11533;SDS011;5823;50.588;8.462;2023-04-03T06:07:26;0.60;;;0.38;;
11533;SDS011;5823;50.588;8.462;2023-04-03T06:09:53;0.38;;;0.30;;
11533;SDS011;5823;50.588;8.462;2023-04-03T06:12:20;0.40;;;0.30;;
11533;SDS011;5823;50.588;8.462;2023-04-03T06:14:47;0.13;;;0.13;;
11533;SDS011;5823;50.588;8.462;2023-04-03T06:17:13;0.20;;;0.20;;
11533;SDS011;5823;50.588;8.462;2023-04-03T06:19:40;0.40;;;0.40;;
11533;SDS011;5823;50.588;8.462;2023-04-03T06:22:06;0.90;;;0.60;;
11533;SDS011;5823;50.588;8.462;2023-04-03T06:24:33;1.13;;;0.40;;
11533;SDS011;5823;50.588;8.462;2023-04-03T06:27:00;0.60;;;0.50;;
11533;SDS011;5823;50.588;8.462;2023-04-03T06:29:26;0.35;;;0.30;;
11533;SDS011;5823;50.588;8.462;2023-04-03T06:31:53;2.03;;;0.98;;
11533;SDS011;5823;50.588;8.462;2023-04-03T06:34:19;0.50;;;0.50;;
11533;SDS011;5823;50.588;8.462;2023-04-03T06:36:46;1.50;;;0.70;;
11533;SDS011;5823;50.588;8.462;2023-04-03T06:39:14;0.20;;;0.20;;
11533;SDS011;5823;50.588;8.462;2023-04-03T06:41:42;1.58;;;0.40;;
11533;SDS011;5823;50.588;8.462;2023-04-03T06:44:08;0.98;;;0.60;;
11533;SDS011;5823;50.588;8.462;2023-04-03T06:46:36;1.00;;;0.52;;
11533;SDS011;5823;50.588;8.462;2023-04-03T06:49:02;0.60;;;0.50;;
11533;SDS011;5823;50.588;8.462;2023-04-03T06:51:29;0.65;;;0.32;;
11533;SDS011;5823;50.588;8.462;2023-04-03T06:53:56;0.85;;;0.47;;
11533;SDS011;5823;50.588;8.462;2023-04-03T06:56:23;0.65;;;0.55;;
11533;SDS011;5823;50.588;8.462;2023-04-03T06:58:51;0.28;;;0.28;;
11533;SDS011;5823;50.588;8.462;2023-04-03T07:01:19;0.47;;;0.45;;
11533;SDS011;5823;50.588;8.462;2023-04-03T07:03:45;0.70;;;0.60;;
11533;SDS011;5823;50.588;8.462;2023-04-03T07:06:13;1.63;;;0.90;;
11533;SDS011;5823;50.588;8.462;2023-04-03T07:08:40;0.68;;;0.40;;
11533;SDS011;5823;50.588;8.462;2023-04-03T07:11:07;1.42;;;0.70;;
11533;SDS011;5823;50.588;8.462;2023-04-03T07:13:33;0.55;;;0.45;;
11533;SDS011;5823;50.588;8.462;2023-04-03T07:16:01;0.50;;;0.50;;
11533;SDS011;5823;50.588;8.462;2023-04-03T07:18:28;0.65;;;0.57;;
11533;SDS011;5823;50.588;8.462;2023-04-03T07:20:54;0.98;;;0.45;;
11533;SDS011;5823;50.588;8.462;2023-04-03T07:23:21;0.93;;;0.70;;
11533;SDS011;5823;50.588;8.462;2023-04-03T07:25:48;1.27;;;0.65;;
11533;SDS011;5823;50.588;8.462;2023-04-03T07:28:15;0.70;;;0.57;;
11533;SDS011;5823;50.588;8.462;2023-04-03T07:30:42;0.40;;;0.40;;
11533;SDS011;5823;50.588;8.462;2023-04-03T07:33:10;0.40;;;0.40;;
11533;SDS011;5823;50.588;8.462;2023-04-03T07:35:36;0.95;;;0.57;;
11533;SDS011;5823;50.588;8.462;2023-04-03T07:38:02;0.68;;;0.40;;
11533;SDS011;5823;50.588;8.462;2023-04-03T07:40:29;1.25;;;0.40;;
11533;SDS011;5823;50.588;8.462;2023-04-03T07:42:55;0.63;;;0.40;;
11533;SDS011;5823;50.588;8.462;2023-04-03T07:45:22;0.93;;;0.50;;
11533;SDS011;5823;50.588;8.462;2023-04-03T07:47:49;0.57;;;0.47;;
11533;SDS011;5823;50.588;8.462;2023-04-03T07:50:17;0.65;;;0.57;;
11533;SDS011;5823;50.588;8.462;2023-04-03T07:52:43;1.02;;;0.50;;
11533;SDS011;5823;50.588;8.462;2023-04-03T07:55:10;0.57;;;0.50;;
11533;SDS011;5823;50.588;8.462;2023-04-03T07:57:36;1.17;;;0.52;;
11533;SDS011;5823;50.588;8.462;2023-04-03T08:00:03;0.55;;;0.52;;
11533;SDS011;5823;50.588;8.462;2023-04-03T08:02:29;0.43;;;0.43;;
11533;SDS011;5823;50.588;8.462;2023-04-03T08:04:56;0.30;;;0.30;;
11533;SDS011;5823;50.588;8.462;2023-04-03T08:07:24;0.30;;;0.30;;
11533;SDS011;5823;50.588;8.462;2023-04-03T08:09:50;0.47;;;0.47;;
11533;SDS011;5823;50.588;8.462;2023-04-03T08:12:17;1.98;;;0.68;;
11533;SDS011;5823;50.588;8.462;2023-04-03T08:14:43;0.60;;;0.60;;
11533;SDS011;5823;50.588;8.462;2023-04-03T08:17:09;1.00;;;0.40;;
11533;SDS011;5823;50.588;8.462;2023-04-03T08:19:36;1.80;;;0.90;;
11533;SDS011;5823;50.588;8.462;2023-04-03T08:22:03;1.55;;;0.70;;
11533;SDS011;5823;50.588;8.462;2023-04-03T08:24:31;1.15;;;0.70;;
11533;SDS011;5823;50.588;8.462;2023-04-03T08:26:57;0.60;;;0.50;;
11533;SDS011;5823;50.588;8.462;2023-04-03T08:29:24;0.70;;;0.70;;
11533;SDS011;5823;50.588;8.462;2023-04-03T08:31:50;0.50;;;0.50;;
11533;SDS011;5823;50.588;8.462;2023-04-03T08:34:16;0.75;;;0.70;;
11533;SDS011;5823;50.588;8.462;2023-04-03T08:36:43;0.90;;;0.60;;
11533;SDS011;5823;50.588;8.462;2023-04-03T08:39:09;0.50;;;0.50;;
11533;SDS011;5823;50.588;8.462;2023-04-03T08:41:37;1.25;;;0.63;;
11533;SDS011;5823;50.588;8.462;2023-04-03T08:44:09;0.60;;;0.60;;
11533;SDS011;5823;50.588;8.462;2023-04-03T08:46:42;0.28;;;0.28;;
11533;SDS011;5823;50.588;8.462;2023-04-03T08:49:11;0.88;;;0.70;;
11533;SDS011;5823;50.588;8.462;2023-04-03T08:51:40;0.70;;;0.40;;
11533;SDS011;5823;50.588;8.462;2023-04-03T08:54:14;1.23;;;1.00;;
11533;SDS011;5823;50.588;8.462;2023-04-03T08:56:48;0.52;;;0.52;;
11533;SDS011;5823;50.588;8.462;2023-04-03T08:59:15;1.08;;;0.70;;
11533;SDS011;5823;50.588;8.462;2023-04-03T09:01:43;1.45;;;0.80;;
11533;SDS011;5823;50.588;8.462;2023-04-03T09:04:10;1.60;;;0.90;;
11533;SDS011;5823;50.588;8.462;2023-04-03T09:06:37;0.95;;;0.63;;
11533;SDS011;5823;50.588;8.462;2023-04-03T09:09:07;1.20;;;0.70;;
11533;SDS011;5823;50.588;8.462;2023-04-03T09:11:40;0.98;;;0.60;;
11533;SDS011;5823;50.588;8.462;2023-04-03T09:14:13;1.73;;;0.98;;
11533;SDS011;5823;50.588;8.462;2023-04-03T09:16:43;0.22;;;0.22;;
11533;SDS011;5823;50.588;8.462;2023-04-03T09:19:15;0.65;;;0.57;;
11533;SDS011;5823;50.588;8.462;2023-04-03T09:21:45;0.90;;;0.63;;
11533;SDS011;5823;50.588;8.462;2023-04-03T09:24:12;1.13;;;0.73;;
11533;SDS011;5823;50.588;8.462;2023-04-03T09:26:41;1.77;;;0.70;;
11533;SDS011;5823;50.588;8.462;2023-04-03T09:29:08;1.00;;;0.63;;
11533;SDS011;5823;50.588;8.462;2023-04-03T09:31:37;0.65;;;0.57;;
11533;SDS011;5823;50.588;8.462;2023-04-03T09:34:05;0.47;;;0.47;;
11533;SDS011;5823;50.588;8.462;2023-04-03T09:36:42;0.60;;;0.60;;
11533;SDS011;5823;50.588;8.462;2023-04-03T09:39:10;1.17;;;0.70;;
11533;SDS011;5823;50.588;8.462;2023-04-03T09:41:37;0.70;;;0.70;;
11533;SDS011;5823;50.588;8.462;2023-04-03T09:44:17;0.70;;;0.43;;
11533;SDS011;5823;50.588;8.462;2023-04-03T09:46:45;0.55;;;0.45;;
11533;SDS011;5823;50.588;8.462;2023-04-03T09:49:11;1.58;;;0.63;;
11533;SDS011;5823;50.588;8.462;2023-04-03T09:51:37;0.68;;;0.68;;
11533;SDS011;5823;50.588;8.462;2023-04-03T09:54:24;0.70;;;0.70;;
11533;SDS011;5823;50.588;8.462;2023-04-03T09:56:51;1.10;;;0.80;;
11533;SDS011;5823;50.588;8.462;2023-04-03T09:59:17;0.40;;;0.40;;
11533;SDS011;5823;50.588;8.462;2023-04-03T10:01:55;0.47;;;0.38;;
11533;SDS011;5823;50.588;8.462;2023-04-03T10:04:22;0.95;;;0.68;;
11533;SDS011;5823;50.588;8.462;2023-04-03T10:06:50;1.00;;;0.73;;
11533;SDS011;5823;50.588;8.462;2023-04-03T10:09:18;1.10;;;0.80;;
11533;SDS011;5823;50.588;8.462;2023-04-03T10:11:57;0.82;;;0.50;;
11533;SDS011;5823;50.588;8.462;2023-04-03T10:14:23;1.05;;;0.80;;
11533;SDS011;5823;50.588;8.462;2023-04-03T10:16:52;0.70;;;0.68;;
11533;SDS011;5823;50.588;8.462;2023-04-03T10:19:25;0.85;;;0.60;;
11533;SDS011;5823;50.588;8.462;2023-04-03T10:21:57;0.93;;;0.60;;
11533;SDS011;5823;50.588;8.462;2023-04-03T10:24:27;1.08;;;0.85;;
11533;SDS011;5823;50.588;8.462;2023-04-03T10:26:56;2.00;;;0.80;;
11533;SDS011;5823;50.588;8.462;2023-04-03T10:29:27;0.50;;;0.50;;
11533;SDS011;5823;50.588;8.462;2023-04-03T10:31:59;1.17;;;0.70;;
11533;SDS011;5823;50.588;8.462;2023-04-03T10:34:28;0.60;;;0.60;;
11533;SDS011;5823;50.588;8.462;2023-04-03T10:36:57;1.85;;;0.73;;
11533;SDS011;5823;50.588;8.462;2023-04-03T10:39:28;0.57;;;0.50;;
11533;SDS011;5823;50.588;8.462;2023-04-03T10:42:00;0.50;;;0.50;;
11533;SDS011;5823;50.588;8.462;2023-04-03T10:44:30;0.65;;;0.47;;
11533;SDS011;5823;50.588;8.462;2023-04-03T10:47:02;0.35;;;0.35;;
11533;SDS011;5823;50.588;8.462;2023-04-03T10:49:35;0.75;;;0.68;;
11533;SDS011;5823;50.588;8.462;2023-04-03T10:52:06;0.80;;;0.80;;
11533;SDS011;5823;50.588;8.462;2023-04-03T10:54:36;0.60;;;0.45;;
11533;SDS011;5823;50.588;8.462;2023-04-03T10:57:04;0.60;;;0.50;;
11533;SDS011;5823;50.588;8.462;2023-04-03T10:59:32;0.85;;;0.70;;
11533;SDS011;5823;50.588;8.462;2023-04-03T11:02:01;1.02;;;0.82;;
11533;SDS011;5823;50.588;8.462;2023-04-03T11:04:31;1.25;;;1.15;;
11533;SDS011;5823;50.588;8.462;2023-04-03T11:07:00;0.60;;;0.50;;
11533;SDS011;5823;50.588;8.462;2023-04-03T11:09:27;1.40;;;0.80;;
11533;SDS011;5823;50.588;8.462;2023-04-03T11:11:55;0.50;;;0.50;;
11533;SDS011;5823;50.588;8.462;2023-04-03T11:14:24;0.77;;;0.55;;
11533;SDS011;5823;50.588;8.462;2023-04-03T11:16:53;0.40;;;0.40;;
11533;SDS011;5823;50.588;8.462;2023-04-03T11:19:25;0.93;;;0.82;;
11533;SDS011;5823;50.588;8.462;2023-04-03T11:21:56;0.40;;;0.40;;
11533;SDS011;5823;50.588;8.462;2023-04-03T11:24:24;0.43;;;0.40;;
11533;SDS011;5823;50.588;8.462;2023-04-03T11:26:51;0.20;;;0.20;;
11533;SDS011;5823;50.588;8.462;2023-04-03T11:29:19;1.08;;;0.77;;
11533;SDS011;5823;50.588;8.462;2023-04-03T11:31:53;0.75;;;0.70;;
11533;SDS011;5823;50.588;8.462;2023-04-03T11:34:29;0.50;;;0.50;;
11533;SDS011;5823;50.588;8.462;2023-04-03T11:36:59;0.30;;;0.30;;
11533;SDS011;5823;50.588;8.462;2023-04-03T11:39:26;0.77;;;0.30;;
11533;SDS011;5823;50.588;8.462;2023-04-03T11:41:53;0.60;;;0.50;;
11533;SDS011;5823;50.588;8.462;2023-04-03T11:44:30;0.52;;;0.52;;
11533;SDS011;5823;50.588;8.462;2023-04-03T11:46:58;0.57;;;0.57;;
11533;SDS011;5823;50.588;8.462;2023-04-03T11:52:11;0.50;;;0.47;;
11533;SDS011;5823;50.588;8.462;2023-04-03T11:54:45;0.30;;;0.30;;
11533;SDS011;5823;50.588;8.462;2023-04-03T11:59:57;0.50;;;0.50;;
11533;SDS011;5823;50.588;8.462;2023-04-03T12:05:24;0.40;;;0.30;;
11533;SDS011;5823;50.588;8.462;2023-04-03T12:10:33;0.30;;;0.30;;
11533;SDS011;5823;50.588;8.462;2023-04-03T12:13:00;0.32;;;0.32;;
11533;SDS011;5823;50.588;8.462;2023-04-03T12:20:55;1.23;;;0.50;;
11533;SDS011;5823;50.588;8.462;2023-04-03T12:23:26;0.35;;;0.35;;
11533;SDS011;5823;50.588;8.462;2023-04-03T12:25:53;0.73;;;0.50;;
11533;SDS011;5823;50.588;8.462;2023-04-03T12:28:25;0.52;;;0.52;;
11533;SDS011;5823;50.588;8.462;2023-04-03T12:30:53;0.35;;;0.35;;
11533;SDS011;5823;50.588;8.462;2023-04-03T12:33:20;1.30;;;0.50;;
11533;SDS011;5823;50.588;8.462;2023-04-03T12:35:55;0.95;;;0.60;;
11533;SDS011;5823;50.588;8.462;2023-04-03T12:41:14;0.43;;;0.35;;
11533;SDS011;5823;50.588;8.462;2023-04-03T12:43:43;0.77;;;0.47;;
11533;SDS011;5823;50.588;8.462;2023-04-03T12:46:14;0.40;;;0.40;;
11533;SDS011;5823;50.588;8.462;2023-04-03T12:48:47;0.55;;;0.38;;
11533;SDS011;5823;50.588;8.462;2023-04-03T12:51:13;0.60;;;0.40;;
11533;SDS011;5823;50.588;8.462;2023-04-03T12:53:40;0.95;;;0.70;;
11533;SDS011;5823;50.588;8.462;2023-04-03T12:56:21;0.25;;;0.25;;
11533;SDS011;5823;50.588;8.462;2023-04-03T12:58:48;0.65;;;0.57;;
11533;SDS011;5823;50.588;8.462;2023-04-03T13:01:16;0.82;;;0.70;;
11533;SDS011;5823;50.588;8.462;2023-04-03T13:03:43;0.70;;;0.60;;
11533;SDS011;5823;50.588;8.462;2023-04-03T13:06:11;0.40;;;0.40;;
11533;SDS011;5823;50.588;8.462;2023-04-03T13:08:47;0.30;;;0.30;;
11533;SDS011;5823;50.588;8.462;2023-04-03T13:11:14;0.20;;;0.20;;
11533;SDS011;5823;50.588;8.462;2023-04-03T13:13:42;0.30;;;0.22;;
11533;SDS011;5823;50.588;8.462;2023-04-03T13:16:19;0.35;;;0.35;;
11533;SDS011;5823;50.588;8.462;2023-04-03T13:18:48;0.73;;;0.73;;
11533;SDS011;5823;50.588;8.462;2023-04-03T13:21:16;0.47;;;0.47;;
11533;SDS011;5823;50.588;8.462;2023-04-03T13:23:44;0.95;;;0.63;;
11533;SDS011;5823;50.588;8.462;2023-04-03T13:26:11;0.70;;;0.63;;
11533;SDS011;5823;50.588;8.462;2023-04-03T13:28:39;0.88;;;0.57;;
11533;SDS011;5823;50.588;8.462;2023-04-03T13:31:08;0.60;;;0.60;;
11533;SDS011;5823;50.588;8.462;2023-04-03T13:33:43;0.50;;;0.50;;
11533;SDS011;5823;50.588;8.462;2023-04-03T13:36:18;0.22;;;0.22;;
11533;SDS011;5823;50.588;8.462;2023-04-03T13:38:46;0.40;;;0.40;;
11533;SDS011;5823;50.588;8.462;2023-04-03T13:41:23;0.30;;;0.30;;
11533;SDS011;5823;50.588;8.462;2023-04-03T13:43:50;0.52;;;0.52;;
11533;SDS011;5823;50.588;8.462;2023-04-03T13:46:23;0.68;;;0.35;;
11533;SDS011;5823;50.588;8.462;2023-04-03T13:48:51;0.40;;;0.30;;
11533;SDS011;5823;50.588;8.462;2023-04-03T13:51:19;0.50;;;0.40;;
11533;SDS011;5823;50.588;8.462;2023-04-03T13:53:47;0.50;;;0.40;;
11533;SDS011;5823;50.588;8.462;2023-04-03T13:56:17;0.40;;;0.40;;
11533;SDS011;5823;50.588;8.462;2023-04-03T13:58:54;0.88;;;0.40;;
11533;SDS011;5823;50.588;8.462;2023-04-03T14:01:20;0.68;;;0.40;;
11533;SDS011;5823;50.588;8.462;2023-04-03T14:03:52;0.20;;;0.20;;
11533;SDS011;5823;50.588;8.462;2023-04-03T14:06:18;0.30;;;0.30;;
11533;SDS011;5823;50.588;8.462;2023-04-03T14:08:45;0.52;;;0.50;;
11533;SDS011;5823;50.588;8.462;2023-04-03T14:11:14;0.35;;;0.35;;
11533;SDS011;5823;50.588;8.462;2023-04-03T14:13:41;0.90;;;0.20;;
11533;SDS011;5823;50.588;8.462;2023-04-03T14:16:07;0.80;;;0.50;;
11533;SDS011;5823;50.588;8.462;2023-04-03T14:18:34;0.55;;;0.50;;
11533;SDS011;5823;50.588;8.462;2023-04-03T14:21:03;0.88;;;0.35;;
11533;SDS011;5823;50.588;8.462;2023-04-03T14:23:29;0.17;;;0.17;;
11533;SDS011;5823;50.588;8.462;2023-04-03T14:25:55;0.43;;;0.40;;
11533;SDS011;5823;50.588;8.462;2023-04-03T14:28:22;0.30;;;0.25;;
11533;SDS011;5823;50.588;8.462;2023-04-03T14:30:49;0.38;;;0.38;;
11533;SDS011;5823;50.588;8.462;2023-04-03T14:33:17;0.30;;;0.30;;
11533;SDS011;5823;50.588;8.462;2023-04-03T14:35:43;0.57;;;0.40;;
11533;SDS011;5823;50.588;8.462;2023-04-03T14:38:20;0.20;;;0.20;;
11533;SDS011;5823;50.588;8.462;2023-04-03T14:40:48;1.13;;;0.35;;
11533;SDS011;5823;50.588;8.462;2023-04-03T14:43:15;0.68;;;0.38;;
11533;SDS011;5823;50.588;8.462;2023-04-03T14:45:41;0.45;;;0.43;;
11533;SDS011;5823;50.588;8.462;2023-04-03T14:48:09;0.77;;;0.63;;
11533;SDS011;5823;50.588;8.462;2023-04-03T14:50:36;1.42;;;0.75;;
11533;SDS011;5823;50.588;8.462;2023-04-03T14:53:03;0.25;;;0.25;;
11533;SDS011;5823;50.588;8.462;2023-04-03T14:55:31;0.40;;;0.40;;
11533;SDS011;5823;50.588;8.462;2023-04-03T14:57:57;0.35;;;0.25;;
11533;SDS011;5823;50.588;8.462;2023-04-03T15:00:23;0.32;;;0.20;;
11533;SDS011;5823;50.588;8.462;2023-04-03T15:02:50;0.30;;;0.30;;
11533;SDS011;5823;50.588;8.462;2023-04-03T15:05:16;0.40;;;0.30;;
11533;SDS011;5823;50.588;8.462;2023-04-03T15:07:44;0.60;;;0.43;;
11533;SDS011;5823;50.588;8.462;2023-04-03T15:10:16;0.20;;;0.20;;
11533;SDS011;5823;50.588;8.462;2023-04-03T15:12:45;0.80;;;0.45;;
11533;SDS011;5823;50.588;8.462;2023-04-03T15:15:11;0.68;;;0.50;;
11533;SDS011;5823;50.588;8.462;2023-04-03T15:17:37;0.40;;;0.40;;
11533;SDS011;5823;50.588;8.462;2023-04-03T15:20:06;0.55;;;0.40;;
11533;SDS011;5823;50.588;8.462;2023-04-03T15:22:36;0.40;;;0.40;;